Station Historical Data
Daily Summary for January 15, 2018 Units:  English    Metric   Both
« Previous Day
Next Day »
Daily Weekly Monthly Yearly Custom
  High: Low: Average:
Temperature: TemperatureF °F 5.0 °F 14.6 °F
Dew Point: DewpointF °F -0.4 °F 7.8 °F
Humidity: Humidity% 51% 74%
Wind Speed: WindSpeedMPHmph 0.0mph 1.5mph
Wind Gust: WindSpeedGustMPHmph - -
Wind- - East
Pressure: PressureIn in 30.36 in -
Precipitation: 0.00 in    
Historical Graphs
 
 
Tabular Data for January 15, 2018
Time Temperature Dew Point Pressure Wind Wind Speed Wind Gust Humidity Rainfall Rate (Hourly)
TemperatureF °F DewpointF °F PressureIn in Calm     Humidity% HourlyPrecipIn in
00:04 6.2 °F 1.1 °F 30.70 in Calm     79% 0.00 in
00:09 6.1 °F 1.0 °F 30.69 in Calm     79% 0.00 in
00:24 6.0 °F 0.9 °F 30.68 in Calm     79% 0.00 in
00:29 6.0 °F 0.9 °F 30.69 in Calm     79% 0.00 in
00:34 6.0 °F 0.9 °F 30.69 in Calm     79% 0.00 in
00:39 5.8 °F 0.7 °F 30.69 in Calm     79% 0.00 in
00:44 5.7 °F 0.6 °F 30.68 in Calm     79% 0.00 in
00:49 5.7 °F 0.6 °F 30.68 in SE 1.0 mph 4.0 mph 79% 0.00 in
00:54 5.9 °F 0.8 °F 30.68 in SE 1.0 mph 4.0 mph 79% 0.00 in
00:59 6.0 °F 0.9 °F 30.68 in SE 1.0 mph 4.0 mph 79% 0.00 in
01:04 6.0 °F 0.9 °F 30.68 in SE 1.0 mph 2.0 mph 79% 0.00 in
01:09 5.8 °F 0.7 °F 30.68 in Calm   2.0 mph 79% 0.00 in
01:14 5.8 °F 0.7 °F 30.68 in ESE 1.0 mph 3.0 mph 79% 0.00 in
01:19 5.8 °F 0.7 °F 30.68 in Calm   3.0 mph 79% 0.00 in
01:24 5.8 °F 0.4 °F 30.68 in Calm   3.0 mph 78% 0.00 in
01:29 5.8 °F 0.7 °F 30.67 in Calm   3.0 mph 79% 0.00 in
01:34 5.8 °F 0.4 °F 30.67 in Calm     78% 0.00 in
01:39 5.8 °F 0.4 °F 30.67 in Calm     78% 0.00 in
01:44 5.8 °F 0.4 °F 30.67 in Calm     78% 0.00 in
01:49 5.8 °F 0.4 °F 30.67 in Calm     78% 0.00 in
01:54 5.6 °F 0.2 °F 30.67 in Calm     78% 0.00 in
01:59 5.7 °F 0.3 °F 30.67 in Calm     78% 0.00 in
02:04 5.8 °F 0.7 °F 30.67 in Calm   4.0 mph 79% 0.00 in
02:09 5.9 °F 0.5 °F 30.67 in ESE 1.0 mph 4.0 mph 78% 0.00 in
02:14 5.9 °F 0.5 °F 30.66 in ESE 1.0 mph 3.0 mph 78% 0.00 in
02:19 5.5 °F 0.1 °F 30.66 in Calm   1.0 mph 78% 0.00 in
02:24 5.2 °F -0.2 °F 30.66 in Calm     78% 0.00 in
02:29 5.1 °F -0.3 °F 30.66 in Calm     78% 0.00 in
02:34 5.0 °F -0.4 °F 30.66 in Calm     78% 0.00 in
02:39 5.2 °F 0.1 °F 30.66 in Calm   4.0 mph 79% 0.00 in
02:44 5.8 °F 0.7 °F 30.66 in ESE 1.0 mph 4.0 mph 79% 0.00 in
02:49 6.3 °F 1.2 °F 30.65 in ESE 2.0 mph 4.0 mph 79% 0.00 in
02:54 6.7 °F 1.3 °F 30.65 in East 1.0 mph 5.0 mph 78% 0.00 in
02:59 7.1 °F 1.7 °F 30.65 in East 5.0 mph 6.0 mph 78% 0.00 in
03:04 7.2 °F 1.5 °F 30.64 in East 3.0 mph 6.0 mph 77% 0.00 in
03:09 7.4 °F 1.4 °F 30.64 in ENE 3.0 mph 6.0 mph 76% 0.00 in
03:14 7.2 °F 1.2 °F 30.64 in ENE 2.0 mph 7.0 mph 76% 0.00 in
03:19 7.1 °F 1.1 °F 30.64 in NE 3.0 mph 7.0 mph 76% 0.00 in
03:24 6.7 °F 0.5 °F 30.64 in NE 2.0 mph 5.0 mph 75% 0.00 in
03:29 6.4 °F 0.4 °F 30.63 in NE 2.0 mph 5.0 mph 76% 0.00 in
03:34 6.2 °F 0.3 °F 30.63 in NE 2.0 mph 5.0 mph 76% 0.00 in
03:39 6.1 °F 0.2 °F 30.63 in Calm   7.0 mph 76% 0.00 in
03:44 6.1 °F 0.2 °F 30.63 in ENE 2.0 mph 7.0 mph 76% 0.00 in
03:49 6.0 °F 0.1 °F 30.63 in ENE 2.0 mph 4.0 mph 76% 0.00 in
03:54 6.1 °F 0.2 °F 30.62 in ENE 1.0 mph 3.0 mph 76% 0.00 in
03:59 6.4 °F 0.4 °F 30.62 in ENE 1.0 mph 5.0 mph 76% 0.00 in
04:04 6.8 °F 0.8 °F 30.63 in ENE 2.0 mph 5.0 mph 76% 0.00 in
04:09 7.1 °F 1.1 °F 30.63 in ENE 2.0 mph 7.0 mph 76% 0.00 in
04:14 7.4 °F 1.4 °F 30.62 in ENE 2.0 mph 8.0 mph 76% 0.00 in
04:19 7.7 °F 1.4 °F 30.63 in ENE 3.0 mph 8.0 mph 75% 0.00 in
04:24 7.9 °F 1.3 °F 30.62 in East 2.0 mph 7.0 mph 74% 0.00 in
04:29 7.9 °F 1.3 °F 30.62 in East 2.0 mph 5.0 mph 74% 0.00 in
04:34 7.8 °F 0.9 °F 30.62 in East 1.0 mph 3.0 mph 73% 0.00 in
04:39 7.7 °F 0.8 °F 30.63 in NE 3.0 mph 5.0 mph 73% 0.00 in
04:49 7.4 °F 0.6 °F 30.62 in ENE 2.0 mph 5.0 mph 73% 0.00 in
04:54 7.3 °F 0.7 °F 30.62 in ENE 2.0 mph 6.0 mph 74% 0.00 in
04:59 7.3 °F 0.7 °F 30.62 in ENE 2.0 mph 7.0 mph 74% 0.00 in
05:04 7.2 °F 0.7 °F 30.62 in ENE 2.0 mph 5.0 mph 74% 0.00 in
05:09 7.2 °F 0.7 °F 30.62 in ENE 4.0 mph 4.0 mph 74% 0.00 in
05:14 7.2 °F 0.7 °F 30.62 in Calm   5.0 mph 74% 0.00 in
05:19 7.2 °F 0.7 °F 30.61 in ENE 1.0 mph 5.0 mph 74% 0.00 in
05:24 7.5 °F 0.9 °F 30.62 in ENE 2.0 mph 7.0 mph 74% 0.00 in
05:29 7.7 °F 1.1 °F 30.61 in ENE 3.0 mph 7.0 mph 74% 0.00 in
05:34 7.8 °F 1.2 °F 30.61 in East 5.0 mph 7.0 mph 74% 0.00 in
05:39 7.9 °F 1.3 °F 30.61 in East 3.0 mph 6.0 mph 74% 0.00 in
05:44 7.9 °F 1.0 °F 30.61 in ENE 5.0 mph 7.0 mph 73% 0.00 in
05:49 8.0 °F 1.1 °F 30.61 in East 1.0 mph 8.0 mph 73% 0.00 in
05:54 8.0 °F 1.1 °F 30.60 in ENE 3.0 mph 8.0 mph 73% 0.00 in
06:04 8.2 °F 1.0 °F 30.60 in ENE 3.0 mph 7.0 mph 72% 0.00 in
06:09 8.2 °F 1.0 °F 30.60 in ENE 2.0 mph 9.0 mph 72% 0.00 in
06:14 8.2 °F 1.0 °F 30.60 in NE 1.0 mph 4.0 mph 72% 0.00 in
06:19 8.0 °F 0.8 °F 30.60 in NE 2.0 mph 5.0 mph 72% 0.00 in
06:24 7.8 °F 0.9 °F 30.60 in NE 2.0 mph 5.0 mph 73% 0.00 in
06:29 7.7 °F 0.8 °F 30.60 in NE 3.0 mph 5.0 mph 73% 0.00 in
06:34 7.7 °F 0.8 °F 30.60 in NE 2.0 mph 6.0 mph 73% 0.00 in
06:39 7.7 °F 1.1 °F 30.60 in NE 2.0 mph 6.0 mph 74% 0.00 in
06:54 8.0 °F 1.4 °F 30.60 in ENE 2.0 mph 7.0 mph 74% 0.00 in
06:59 8.0 °F 1.4 °F 30.60 in East 2.0 mph 9.0 mph 74% 0.00 in
07:04 8.0 °F 1.4 °F 30.60 in East 2.0 mph 9.0 mph 74% 0.00 in
07:24 8.0 °F 1.1 °F 30.59 in NE 3.0 mph 6.0 mph 73% 0.00 in
07:29 7.9 °F 1.0 °F 30.59 in East 2.0 mph 7.0 mph 73% 0.00 in
07:34 8.0 °F 1.1 °F 30.59 in East 2.0 mph 8.0 mph 73% 0.00 in
07:39 7.9 °F 1.0 °F 30.58 in East 3.0 mph 8.0 mph 73% 0.00 in
07:44 7.9 °F 1.3 °F 30.58 in ENE 3.0 mph 6.0 mph 74% 0.00 in
07:49 7.9 °F 1.3 °F 30.58 in ENE 3.0 mph 6.0 mph 74% 0.00 in
07:54 7.9 °F 1.3 °F 30.58 in ENE 2.0 mph 5.0 mph 74% 0.00 in
07:59 7.9 °F 1.0 °F 30.58 in ESE 3.0 mph 7.0 mph 73% 0.00 in
08:04 7.9 °F 1.3 °F 30.58 in ENE 3.0 mph 7.0 mph 74% 0.00 in
08:09 7.9 °F 1.0 °F 30.58 in SE 2.0 mph 4.0 mph 73% 0.00 in
08:14 8.0 °F 1.1 °F 30.58 in ENE 2.0 mph 5.0 mph 73% 0.00 in
08:19 8.1 °F 1.2 °F 30.58 in ENE 2.0 mph 5.0 mph 73% 0.00 in
08:24 8.3 °F 1.4 °F 30.58 in ENE 2.0 mph 6.0 mph 73% 0.00 in
08:29 8.5 °F 1.6 °F 30.58 in ENE 2.0 mph 6.0 mph 73% 0.00 in
08:34 8.9 °F 2.0 °F 30.58 in East 2.0 mph 6.0 mph 73% 0.00 in
08:39 9.1 °F 1.9 °F 30.57 in ENE 3.0 mph 7.0 mph 72% 0.00 in
08:44 9.4 °F 2.2 °F 30.57 in ENE 5.0 mph 6.0 mph 72% 0.00 in
08:49 9.5 °F 2.0 °F 30.57 in ENE 3.0 mph 7.0 mph 71% 0.00 in
08:54 9.6 °F 2.1 °F 30.57 in ENE 3.0 mph 6.0 mph 71% 0.00 in
08:59 9.8 °F 2.3 °F 30.57 in East 2.0 mph 7.0 mph 71% 0.00 in
09:04 10.0 °F 2.5 °F 30.57 in ENE 4.0 mph 6.0 mph 71% 0.00 in
09:09 10.2 °F 2.7 °F 30.57 in ENE 4.0 mph 5.0 mph 71% 0.00 in
09:14 10.4 °F 2.9 °F 30.57 in East 5.0 mph 6.0 mph 71% 0.00 in
09:19 10.5 °F 2.6 °F 30.57 in ENE 3.0 mph 8.0 mph 70% 0.00 in
09:24 10.8 °F 2.9 °F 30.57 in Calm   5.0 mph 70% 0.00 in
09:29 11.0 °F 3.1 °F 30.57 in East 2.0 mph 5.0 mph 70% 0.00 in
09:34 11.4 °F 3.5 °F 30.57 in East 2.0 mph 5.0 mph 70% 0.00 in
09:44 12.2 °F 4.0 °F 30.57 in ENE 1.0 mph 4.0 mph 69% 0.00 in
09:49 12.5 °F 4.3 °F 30.56 in East 3.0 mph 5.0 mph 69% 0.00 in
09:54 12.7 °F 4.1 °F 30.56 in East 2.0 mph 7.0 mph 68% 0.00 in
09:59 13.3 °F 4.7 °F 30.56 in ENE 2.0 mph 5.0 mph 68% 0.00 in
10:04 13.9 °F 5.0 °F 30.56 in ESE 1.0 mph 6.0 mph 67% 0.00 in
10:14 14.8 °F 5.2 °F 30.56 in ESE 1.0 mph 8.0 mph 65% 0.00 in
10:19 15.2 °F 5.5 °F 30.55 in East 3.0 mph 6.0 mph 65% 0.00 in
10:24 15.3 °F 4.9 °F 30.55 in ESE 2.0 mph 9.0 mph 63% 0.00 in
10:29 15.5 °F 5.1 °F 30.55 in SE 4.0 mph 9.0 mph 63% 0.00 in
10:34 15.8 °F 5.1 °F 30.55 in SE 4.0 mph 10.0 mph 62% 0.00 in
10:39 16.1 °F 5.7 °F 30.55 in SE 3.0 mph 10.0 mph 63% 0.00 in
10:54 16.4 °F 5.6 °F 30.54 in East 1.0 mph 6.0 mph 62% 0.00 in
10:59 16.8 °F 6.0 °F 30.54 in ESE 3.0 mph 7.0 mph 62% 0.00 in
11:04 16.8 °F 6.0 °F 30.54 in SE 3.0 mph 8.0 mph 62% 0.00 in
11:09 16.8 °F 5.7 °F 30.53 in ESE 3.0 mph 8.0 mph 61% 0.00 in
11:14 16.9 °F 5.8 °F 30.53 in Calm   3.0 mph 61% 0.00 in
11:19 17.1 °F 5.9 °F 30.53 in ESE 3.0 mph 5.0 mph 61% 0.00 in
11:24 17.2 °F 6.0 °F 30.52 in ESE 1.0 mph 4.0 mph 61% 0.00 in
11:29 17.3 °F 5.8 °F 30.52 in Calm   4.0 mph 60% 0.00 in
11:34 17.7 °F 6.2 °F 30.52 in SE 2.0 mph 4.0 mph 60% 0.00 in
11:39 18.1 °F 6.5 °F 30.52 in SE 1.0 mph 5.0 mph 60% 0.00 in
11:44 18.6 °F 6.6 °F 30.52 in SE 1.0 mph 5.0 mph 59% 0.00 in
11:49 19.0 °F 6.6 °F 30.51 in ESE 2.0 mph 5.0 mph 58% 0.00 in
11:59 19.0 °F 6.6 °F 30.51 in East 3.0 mph 3.0 mph 58% 0.00 in
12:04 19.3 °F 6.9 °F 30.51 in Calm   5.0 mph 58% 0.00 in
12:09 19.3 °F 6.5 °F 30.50 in East 1.0 mph 5.0 mph 57% 0.00 in
12:14 19.7 °F 6.9 °F 30.50 in East 1.0 mph 3.0 mph 57% 0.00 in
12:19 19.9 °F 7.1 °F 30.49 in SE 1.0 mph 5.0 mph 57% 0.00 in
12:24 20.1 °F 7.3 °F 30.49 in SE 1.0 mph 4.0 mph 57% 0.00 in
12:29 20.2 °F 6.6 °F 30.48 in Calm   2.0 mph 55% 0.00 in
12:44 20.5 °F 7.3 °F 30.47 in ESE 2.0 mph 4.0 mph 56% 0.00 in
12:49 20.5 °F 7.3 °F 30.47 in ESE 1.0 mph 4.0 mph 56% 0.00 in
12:54 20.7 °F 7.5 °F 30.47 in ESE 1.0 mph 2.0 mph 56% 0.00 in
12:59 21.0 °F 7.3 °F 30.47 in Calm   3.0 mph 55% 0.00 in
13:04 21.1 °F 7.0 °F 30.46 in ESE 1.0 mph 3.0 mph 54% 0.00 in
13:09 21.5 °F 8.2 °F 30.46 in ESE 1.0 mph 3.0 mph 56% 0.00 in
13:14 21.7 °F 8.0 °F 30.46 in ESE 1.0 mph 3.0 mph 55% 0.00 in
13:19 21.8 °F 8.1 °F 30.45 in ESE 1.0 mph 3.0 mph 55% 0.00 in
13:24 21.8 °F 8.1 °F 30.45 in ENE 2.0 mph 4.0 mph 55% 0.00 in
13:29 21.9 °F 7.8 °F 30.45 in Calm   3.0 mph 54% 0.00 in
13:34 22.1 °F 7.6 °F 30.45 in Calm   1.0 mph 53% 0.00 in
13:39 22.4 °F 8.7 °F 30.45 in Calm   1.0 mph 55% 0.00 in
13:44 22.5 °F 8.3 °F 30.45 in Calm   2.0 mph 54% 0.00 in
13:49 22.5 °F 7.1 °F 30.45 in Calm     51% 0.00 in
13:54 22.6 °F 8.8 °F 30.44 in Calm     55% 0.00 in
13:59 22.5 °F 7.9 °F 30.44 in Calm     53% 0.00 in
14:04 22.3 °F 6.9 °F 30.44 in ENE 1.0 mph 3.0 mph 51% 0.00 in
14:09 22.4 °F 8.7 °F 30.44 in ENE 1.0 mph 5.0 mph 55% 0.00 in
14:14 22.5 °F 8.3 °F 30.44 in ESE 2.0 mph 5.0 mph 54% 0.00 in
14:19 22.6 °F 9.6 °F 30.45 in SE 2.0 mph 5.0 mph 57% 0.00 in
14:24 22.4 °F 10.2 °F 30.45 in SE 8.0 mph 8.0 mph 59% 0.00 in
14:29 22.2 °F 11.1 °F 30.44 in Calm   8.0 mph 62% 0.00 in
14:34 22.2 °F 11.5 °F 30.44 in SSE 3.0 mph 5.0 mph 63% 0.00 in
14:39 21.7 °F 12.1 °F 30.44 in ESE 2.0 mph 5.0 mph 66% 0.00 in
14:44 21.8 °F 12.5 °F 30.44 in SE 3.0 mph 5.0 mph 67% 0.00 in
14:49 22.1 °F 13.8 °F 30.44 in SSE 4.0 mph 6.0 mph 70% 0.00 in
14:54 21.9 °F 14.3 °F 30.44 in SE 3.0 mph 6.0 mph 72% 0.00 in
14:59 21.6 °F 14.9 °F 30.44 in SE 3.0 mph 7.0 mph 75% 0.00 in
15:04 21.8 °F 15.4 °F 30.44 in SE 3.0 mph 7.0 mph 76% 0.00 in
15:09 21.4 °F 15.0 °F 30.43 in SE 2.0 mph 7.0 mph 76% 0.00 in
15:14 21.4 °F 15.3 °F 30.43 in SE 3.0 mph 7.0 mph 77% 0.00 in
15:19 21.1 °F 15.0 °F 30.43 in SE 2.0 mph 5.0 mph 77% 0.00 in
15:24 20.8 °F 15.0 °F 30.43 in Calm   5.0 mph 78% 0.00 in
15:34 21.1 °F 15.3 °F 30.43 in ENE 2.0 mph 6.0 mph 78% 0.00 in
15:39 21.3 °F 15.5 °F 30.43 in East 2.0 mph 6.0 mph 78% 0.00 in
15:49 21.0 °F 15.2 °F 30.43 in East 3.0 mph 7.0 mph 78% 0.00 in
15:50 21.0 °F 15.2 °F 30.43 in East 7.0 mph 7.0 mph 78% 0.00 in
15:54 21.1 °F 15.6 °F 30.43 in East 1.0 mph 8.0 mph 79% 0.00 in
15:55 21.1 °F 15.6 °F 30.43 in East 2.0 mph 8.0 mph 79% 0.00 in
16:00 21.0 °F 15.2 °F 30.42 in East 3.0 mph 8.0 mph 78% 0.00 in
16:09 20.7 °F 14.6 °F 30.42 in ENE 1.0 mph 5.0 mph 77% 0.00 in
16:14 20.3 °F 14.2 °F 30.43 in ENE 1.0 mph 3.0 mph 77% 0.00 in
16:19 20.1 °F 14.3 °F 30.43 in ENE 2.0 mph 5.0 mph 78% 0.00 in
16:24 20.0 °F 14.2 °F 30.43 in ENE 2.0 mph 6.0 mph 78% 0.00 in
16:29 20.0 °F 14.2 °F 30.43 in NE 1.0 mph 3.0 mph 78% 0.00 in
16:34 20.0 °F 14.2 °F 30.43 in ESE 1.0 mph 4.0 mph 78% 0.00 in
16:40 20.0 °F 14.2 °F 30.43 in East 1.0 mph 4.0 mph 78% 0.00 in
16:49 20.1 °F 14.3 °F 30.43 in ENE 2.0 mph 3.0 mph 78% 0.00 in
16:54 20.2 °F 14.7 °F 30.43 in ENE 2.0 mph 4.0 mph 79% 0.00 in
16:59 20.2 °F 14.7 °F 30.43 in NE 2.0 mph 5.0 mph 79% 0.00 in
17:04 20.2 °F 14.7 °F 30.43 in ENE 2.0 mph 4.0 mph 79% 0.00 in
17:09 20.3 °F 14.8 °F 30.43 in ENE 2.0 mph 5.0 mph 79% 0.00 in
17:19 20.4 °F 14.9 °F 30.43 in ENE 2.0 mph 5.0 mph 79% 0.00 in
17:24 20.5 °F 15.0 °F 30.42 in ENE 2.0 mph 6.0 mph 79% 0.00 in
17:34 20.6 °F 15.1 °F 30.42 in ENE 1.0 mph 4.0 mph 79% 0.00 in
17:39 20.6 °F 15.1 °F 30.42 in East 2.0 mph 5.0 mph 79% 0.00 in
17:44 20.6 °F 15.1 °F 30.42 in East 2.0 mph 5.0 mph 79% 0.00 in
17:49 20.6 °F 15.1 °F 30.41 in East 1.0 mph 5.0 mph 79% 0.00 in
17:54 20.6 °F 15.1 °F 30.41 in East 1.0 mph 6.0 mph 79% 0.00 in
17:59 20.6 °F 15.1 °F 30.41 in East 1.0 mph 6.0 mph 79% 0.00 in
18:04 20.6 °F 15.1 °F 30.41 in ESE 1.0 mph 7.0 mph 79% 0.00 in
18:09 20.6 °F 15.1 °F 30.41 in ESE 2.0 mph 7.0 mph 79% 0.00 in
18:19 20.6 °F 15.1 °F 30.42 in ESE 2.0 mph 5.0 mph 79% 0.00 in
18:24 20.5 °F 15.0 °F 30.42 in SE 2.0 mph 5.0 mph 79% 0.00 in
18:29 20.6 °F 15.4 °F 30.41 in Calm   6.0 mph 80% 0.00 in
18:34 20.5 °F 15.3 °F 30.41 in Calm   6.0 mph 80% 0.00 in
18:39 20.5 °F 15.3 °F 30.41 in SE 3.0 mph 5.0 mph 80% 0.00 in
18:49 20.4 °F 15.2 °F 30.41 in ESE 2.0 mph 5.0 mph 80% 0.00 in
18:54 20.4 °F 15.5 °F 30.41 in East 2.0 mph 5.0 mph 81% 0.00 in
18:59 20.4 °F 15.5 °F 30.41 in East 2.0 mph 6.0 mph 81% 0.00 in
19:04 20.3 °F 15.4 °F 30.41 in ESE 2.0 mph 6.0 mph 81% 0.00 in
19:09 20.3 °F 15.4 °F 30.41 in East 1.0 mph 5.0 mph 81% 0.00 in
19:14 20.3 °F 15.7 °F 30.41 in East 1.0 mph 5.0 mph 82% 0.00 in
19:19 20.2 °F 15.6 °F 30.41 in ESE 2.0 mph 5.0 mph 82% 0.00 in
19:34 20.3 °F 15.7 °F 30.41 in East 2.0 mph 4.0 mph 82% 0.00 in
19:39 20.2 °F 15.6 °F 30.41 in East 2.0 mph 3.0 mph 82% 0.00 in
19:44 20.3 °F 15.7 °F 30.41 in ESE 2.0 mph 4.0 mph 82% 0.00 in
19:59 20.2 °F 15.9 °F 30.40 in ESE 2.0 mph 5.0 mph 83% 0.00 in
20:04 20.2 °F 15.9 °F 30.40 in ESE 2.0 mph 4.0 mph 83% 0.00 in
20:09 20.2 °F 15.9 °F 30.41 in ESE 1.0 mph 4.0 mph 83% 0.00 in
20:14 20.1 °F 15.8 °F 30.40 in ESE 2.0 mph 4.0 mph 83% 0.00 in
20:19 20.2 °F 15.9 °F 30.40 in ESE 1.0 mph 4.0 mph 83% 0.00 in
20:24 20.2 °F 15.9 °F 30.40 in SE 1.0 mph 4.0 mph 83% 0.00 in
20:29 20.1 °F 16.0 °F 30.40 in SSE 3.0 mph 4.0 mph 84% 0.00 in
20:39 20.1 °F 16.0 °F 30.40 in Calm   4.0 mph 84% 0.00 in
20:44 20.0 °F 15.9 °F 30.40 in Calm   3.0 mph 84% 0.00 in
20:49 20.0 °F 16.2 °F 30.40 in Calm   3.0 mph 85% 0.00 in
20:54 20.0 °F 16.2 °F 30.40 in SE 3.0 mph 4.0 mph 85% 0.00 in
20:59 20.0 °F 16.2 °F 30.40 in SE 1.0 mph 3.0 mph 85% 0.00 in
21:04 20.0 °F 16.2 °F 30.40 in SE 1.0 mph 4.0 mph 85% 0.00 in
21:09 20.0 °F 16.2 °F 30.40 in SE 1.0 mph 4.0 mph 85% 0.00 in
21:14 20.1 °F 16.6 °F 30.40 in SE 2.0 mph 2.0 mph 86% 0.00 in
21:19 20.1 °F 16.6 °F 30.40 in SE 1.0 mph 2.0 mph 86% 0.00 in
21:24 20.1 °F 16.6 °F 30.40 in SE 1.0 mph 3.0 mph 86% 0.00 in
21:29 20.1 °F 16.6 °F 30.40 in Calm   2.0 mph 86% 0.00 in
21:44 20.2 °F 16.7 °F 30.39 in Calm     86% 0.00 in
21:49 20.2 °F 16.7 °F 30.40 in SE 1.0 mph 3.0 mph 86% 0.00 in
21:54 20.2 °F 16.7 °F 30.39 in Calm   3.0 mph 86% 0.00 in
21:59 20.2 °F 16.7 °F 30.39 in Calm   3.0 mph 86% 0.00 in
22:04 20.2 °F 16.7 °F 30.39 in Calm   2.0 mph 86% 0.00 in
22:09 20.2 °F 16.7 °F 30.39 in Calm   3.0 mph 86% 0.00 in
22:14 20.2 °F 16.7 °F 30.39 in SE 1.0 mph 3.0 mph 86% 0.00 in
22:19 20.1 °F 16.6 °F 30.39 in Calm   2.0 mph 86% 0.00 in
22:24 20.1 °F 16.6 °F 30.38 in Calm   2.0 mph 86% 0.00 in
22:29 20.1 °F 16.6 °F 30.38 in Calm   2.0 mph 86% 0.00 in
22:34 20.0 °F 16.5 °F 30.38 in SE 1.0 mph 2.0 mph 86% 0.00 in
22:39 20.0 °F 16.5 °F 30.38 in Calm   2.0 mph 86% 0.00 in
22:44 20.0 °F 16.5 °F 30.38 in Calm   3.0 mph 86% 0.00 in
22:49 19.9 °F 16.7 °F 30.38 in SE 1.0 mph 4.0 mph 87% 0.00 in
22:59 19.7 °F 16.5 °F 30.38 in Calm   3.0 mph 87% 0.00 in
23:04 19.5 °F 16.3 °F 30.37 in Calm   1.0 mph 87% 0.00 in
23:09 19.3 °F 16.1 °F 30.37 in Calm     87% 0.00 in
23:14 19.0 °F 15.8 °F 30.37 in Calm     87% 0.00 in
23:19 18.8 °F 15.3 °F 30.37 in Calm     86% 0.00 in
23:24 18.7 °F 15.5 °F 30.37 in Calm     87% 0.00 in
23:29 18.8 °F 15.6 °F 30.36 in Calm     87% 0.00 in
23:34 19.0 °F 15.8 °F 30.36 in Calm     87% 0.00 in
23:39 19.0 °F 15.8 °F 30.36 in SE 2.0 mph 2.0 mph 87% 0.00 in
23:44 19.0 °F 15.8 °F 30.36 in SE 2.0 mph 3.0 mph 87% 0.00 in
23:49 19.1 °F 15.9 °F 30.36 in Calm   2.0 mph 87% 0.00 in
23:54 19.2 °F 16.0 °F 30.36 in Calm   2.0 mph 87% 0.00 in
23:59 19.3 °F 16.1 °F 30.36 in Calm     87% 0.00 in
Buffalo, New York, USA
Compliments of Weather Underground - 2.25 mb